sensor_id;sensor_type;location;lat;lon;timestamp;pressure;altitude;pressure_sealevel;temperature;humidity
33153;BME280;19509;43.862;26.176;2022-12-31T00:00:35;101852.31;;;1.53;87.68
33153;BME280;19509;43.862;26.176;2022-12-31T00:03:03;101861.13;;;1.53;87.50
33153;BME280;19509;43.862;26.176;2022-12-31T00:05:30;101865.56;;;1.53;87.76
33153;BME280;19509;43.862;26.176;2022-12-31T00:07:56;101868.59;;;1.48;87.76
33153;BME280;19509;43.862;26.176;2022-12-31T00:10:22;101866.66;;;1.39;88.15
33153;BME280;19509;43.862;26.176;2022-12-31T00:12:48;101866.56;;;1.40;88.19
33153;BME280;19509;43.862;26.176;2022-12-31T00:15:14;101868.22;;;1.53;88.24
33153;BME280;19509;43.862;26.176;2022-12-31T00:17:39;101882.47;;;1.52;88.89
33153;BME280;19509;43.862;26.176;2022-12-31T00:20:05;101885.25;;;1.61;88.47
33153;BME280;19509;43.862;26.176;2022-12-31T00:22:31;101881.50;;;1.75;88.19
33153;BME280;19509;43.862;26.176;2022-12-31T00:24:56;101881.16;;;1.69;88.30
33153;BME280;19509;43.862;26.176;2022-12-31T00:27:22;101874.88;;;1.70;88.27
33153;BME280;19509;43.862;26.176;2022-12-31T00:29:47;101884.88;;;1.66;89.02
33153;BME280;19509;43.862;26.176;2022-12-31T00:32:12;101880.53;;;1.65;88.74
33153;BME280;19509;43.862;26.176;2022-12-31T00:34:38;101883.19;;;1.65;88.70
33153;BME280;19509;43.862;26.176;2022-12-31T00:37:03;101888.88;;;1.60;88.72
33153;BME280;19509;43.862;26.176;2022-12-31T00:39:29;101891.75;;;1.69;88.44
33153;BME280;19509;43.862;26.176;2022-12-31T00:41:55;101893.81;;;1.65;88.25
33153;BME280;19509;43.862;26.176;2022-12-31T00:44:20;101896.69;;;1.73;88.22
33153;BME280;19509;43.862;26.176;2022-12-31T00:46:45;101907.56;;;1.70;87.73
33153;BME280;19509;43.862;26.176;2022-12-31T00:49:11;101909.50;;;1.68;88.58
33153;BME280;19509;43.862;26.176;2022-12-31T00:51:36;101901.53;;;1.68;88.44
33153;BME280;19509;43.862;26.176;2022-12-31T00:54:02;101910.59;;;1.77;88.45
33153;BME280;19509;43.862;26.176;2022-12-31T00:56:29;101912.25;;;1.55;88.66
33153;BME280;19509;43.862;26.176;2022-12-31T00:58:55;101911.03;;;1.37;86.72
33153;BME280;19509;43.862;26.176;2022-12-31T01:01:29;101908.97;;;1.29;85.53
33153;BME280;19509;43.862;26.176;2022-12-31T01:04:12;101914.28;;;1.40;86.89
33153;BME280;19509;43.862;26.176;2022-12-31T01:06:38;101907.66;;;1.35;88.23
33153;BME280;19509;43.862;26.176;2022-12-31T01:09:05;101912.72;;;1.38;88.78
33153;BME280;19509;43.862;26.176;2022-12-31T01:11:31;101913.22;;;1.43;88.91
33153;BME280;19509;43.862;26.176;2022-12-31T01:14:01;101908.91;;;1.53;89.03
33153;BME280;19509;43.862;26.176;2022-12-31T01:16:30;101915.50;;;1.59;88.60
33153;BME280;19509;43.862;26.176;2022-12-31T01:18:58;101906.94;;;1.55;88.80
33153;BME280;19509;43.862;26.176;2022-12-31T01:21:24;101928.25;;;1.42;88.73
33153;BME280;19509;43.862;26.176;2022-12-31T01:23:50;101919.47;;;1.31;88.44
33153;BME280;19509;43.862;26.176;2022-12-31T01:26:18;101915.34;;;1.27;88.62
33153;BME280;19509;43.862;26.176;2022-12-31T01:28:44;101917.78;;;1.30;89.01
33153;BME280;19509;43.862;26.176;2022-12-31T01:31:15;101911.03;;;1.48;89.56
33153;BME280;19509;43.862;26.176;2022-12-31T01:33:42;101908.66;;;1.56;88.63
33153;BME280;19509;43.862;26.176;2022-12-31T01:36:14;101907.19;;;1.52;88.24
33153;BME280;19509;43.862;26.176;2022-12-31T01:38:40;101920.06;;;1.46;88.50
33153;BME280;19509;43.862;26.176;2022-12-31T01:41:08;101918.16;;;1.48;88.70
33153;BME280;19509;43.862;26.176;2022-12-31T01:46:38;101908.53;;;1.47;88.58
33153;BME280;19509;43.862;26.176;2022-12-31T01:49:28;101914.53;;;1.49;88.17
33153;BME280;19509;43.862;26.176;2022-12-31T01:52:05;101909.00;;;1.40;87.58
33153;BME280;19509;43.862;26.176;2022-12-31T01:54:36;101916.06;;;1.29;87.75
33153;BME280;19509;43.862;26.176;2022-12-31T01:57:03;101912.81;;;1.25;88.04
33153;BME280;19509;43.862;26.176;2022-12-31T01:59:29;101905.22;;;1.21;88.56
33153;BME280;19509;43.862;26.176;2022-12-31T02:01:55;101916.94;;;1.29;89.32
33153;BME280;19509;43.862;26.176;2022-12-31T02:04:23;101911.19;;;1.47;89.01
33153;BME280;19509;43.862;26.176;2022-12-31T02:06:54;101909.84;;;1.52;88.22
33153;BME280;19509;43.862;26.176;2022-12-31T02:09:20;101906.34;;;1.40;88.29
33153;BME280;19509;43.862;26.176;2022-12-31T02:11:46;101913.47;;;1.40;87.79
33153;BME280;19509;43.862;26.176;2022-12-31T02:14:21;101917.91;;;1.39;87.89
33153;BME280;19509;43.862;26.176;2022-12-31T02:25:11;101912.00;;;1.47;87.48
33153;BME280;19509;43.862;26.176;2022-12-31T02:30:33;101924.38;;;1.24;88.39
33153;BME280;19509;43.862;26.176;2022-12-31T02:33:07;101911.00;;;1.26;88.72
33153;BME280;19509;43.862;26.176;2022-12-31T02:38:17;101910.53;;;1.32;89.18
33153;BME280;19509;43.862;26.176;2022-12-31T02:40:44;101912.63;;;1.39;88.96
33153;BME280;19509;43.862;26.176;2022-12-31T02:43:10;101921.75;;;1.35;89.17
33153;BME280;19509;43.862;26.176;2022-12-31T02:45:47;101909.22;;;1.37;88.83
33153;BME280;19509;43.862;26.176;2022-12-31T02:56:30;101908.00;;;1.19;88.02
33153;BME280;19509;43.862;26.176;2022-12-31T02:59:23;101910.38;;;1.11;88.02
33153;BME280;19509;43.862;26.176;2022-12-31T03:02:12;101920.88;;;1.12;88.38
33153;BME280;19509;43.862;26.176;2022-12-31T03:05:00;101928.69;;;1.14;88.13
33153;BME280;19509;43.862;26.176;2022-12-31T03:07:28;101932.81;;;1.18;88.33
33153;BME280;19509;43.862;26.176;2022-12-31T03:09:54;101945.00;;;1.21;88.71
33153;BME280;19509;43.862;26.176;2022-12-31T03:12:24;101943.56;;;1.28;89.16
33153;BME280;19509;43.862;26.176;2022-12-31T03:15:09;101945.72;;;1.23;89.20
33153;BME280;19509;43.862;26.176;2022-12-31T03:20:35;101958.38;;;1.19;89.21
33153;BME280;19509;43.862;26.176;2022-12-31T03:23:26;101968.47;;;1.14;89.17
33153;BME280;19509;43.862;26.176;2022-12-31T03:25:52;101963.16;;;1.14;88.79
33153;BME280;19509;43.862;26.176;2022-12-31T03:28:21;101943.63;;;1.15;89.76
33153;BME280;19509;43.862;26.176;2022-12-31T03:30:49;101943.63;;;1.15;88.96
33153;BME280;19509;43.862;26.176;2022-12-31T03:33:16;101944.59;;;1.14;89.00
33153;BME280;19509;43.862;26.176;2022-12-31T03:35:43;101934.00;;;1.14;88.92
33153;BME280;19509;43.862;26.176;2022-12-31T03:38:08;101951.75;;;1.25;88.32
33153;BME280;19509;43.862;26.176;2022-12-31T03:40:46;101955.94;;;1.16;88.04
33153;BME280;19509;43.862;26.176;2022-12-31T03:43:12;101947.84;;;1.06;88.25
33153;BME280;19509;43.862;26.176;2022-12-31T03:45:37;101953.75;;;1.10;88.60
33153;BME280;19509;43.862;26.176;2022-12-31T03:48:04;101954.16;;;1.16;88.81
33153;BME280;19509;43.862;26.176;2022-12-31T03:50:31;101953.91;;;1.20;88.61
33153;BME280;19509;43.862;26.176;2022-12-31T03:52:56;101942.34;;;1.21;88.46
33153;BME280;19509;43.862;26.176;2022-12-31T03:55:22;101947.25;;;1.14;88.42
33153;BME280;19509;43.862;26.176;2022-12-31T03:57:48;101947.25;;;1.14;87.86
33153;BME280;19509;43.862;26.176;2022-12-31T04:00:15;101944.97;;;1.09;88.37
33153;BME280;19509;43.862;26.176;2022-12-31T04:02:42;101940.66;;;1.20;88.04
33153;BME280;19509;43.862;26.176;2022-12-31T04:05:09;101954.00;;;1.18;88.53
33153;BME280;19509;43.862;26.176;2022-12-31T04:07:34;101957.84;;;1.14;88.95
33153;BME280;19509;43.862;26.176;2022-12-31T04:10:00;101959.28;;;1.07;89.12
33153;BME280;19509;43.862;26.176;2022-12-31T04:12:25;101958.84;;;1.24;88.76
33153;BME280;19509;43.862;26.176;2022-12-31T04:14:51;101958.84;;;1.24;89.15
33153;BME280;19509;43.862;26.176;2022-12-31T04:17:16;101959.00;;;1.34;88.55
33153;BME280;19509;43.862;26.176;2022-12-31T04:19:42;101962.13;;;1.28;88.69
33153;BME280;19509;43.862;26.176;2022-12-31T04:22:07;101956.72;;;1.29;89.07
33153;BME280;19509;43.862;26.176;2022-12-31T04:24:33;101964.94;;;1.37;88.67
33153;BME280;19509;43.862;26.176;2022-12-31T04:26:59;101969.63;;;1.34;88.70
33153;BME280;19509;43.862;26.176;2022-12-31T04:29:24;101977.81;;;1.42;88.58
33153;BME280;19509;43.862;26.176;2022-12-31T04:31:49;101973.88;;;1.48;88.53
33153;BME280;19509;43.862;26.176;2022-12-31T04:34:15;101965.16;;;1.46;88.54
33153;BME280;19509;43.862;26.176;2022-12-31T04:36:40;101974.09;;;1.45;88.91
33153;BME280;19509;43.862;26.176;2022-12-31T04:39:06;101961.81;;;1.55;88.13
33153;BME280;19509;43.862;26.176;2022-12-31T04:41:31;101969.31;;;1.50;88.74
33153;BME280;19509;43.862;26.176;2022-12-31T04:43:58;101969.03;;;1.53;88.56
33153;BME280;19509;43.862;26.176;2022-12-31T04:46:27;101969.91;;;1.53;88.15
33153;BME280;19509;43.862;26.176;2022-12-31T04:48:53;101971.00;;;1.51;88.02
33153;BME280;19509;43.862;26.176;2022-12-31T04:51:19;101976.28;;;1.51;88.26
33153;BME280;19509;43.862;26.176;2022-12-31T04:53:45;101980.03;;;1.59;87.49
33153;BME280;19509;43.862;26.176;2022-12-31T04:56:10;101972.34;;;1.56;87.90
33153;BME280;19509;43.862;26.176;2022-12-31T04:58:37;101971.97;;;1.50;87.67
33153;BME280;19509;43.862;26.176;2022-12-31T05:01:04;101975.56;;;1.49;88.18
33153;BME280;19509;43.862;26.176;2022-12-31T05:03:29;101975.06;;;1.44;88.15
33153;BME280;19509;43.862;26.176;2022-12-31T05:06:04;101986.91;;;1.51;88.35
33153;BME280;19509;43.862;26.176;2022-12-31T05:08:30;101991.47;;;1.49;87.66
33153;BME280;19509;43.862;26.176;2022-12-31T05:10:56;101999.66;;;1.46;88.14
33153;BME280;19509;43.862;26.176;2022-12-31T05:13:22;101990.75;;;1.47;87.80
33153;BME280;19509;43.862;26.176;2022-12-31T05:15:47;101992.81;;;1.43;87.99
33153;BME280;19509;43.862;26.176;2022-12-31T05:18:13;101995.16;;;1.35;88.02
33153;BME280;19509;43.862;26.176;2022-12-31T05:20:39;102008.56;;;1.33;87.40
33153;BME280;19509;43.862;26.176;2022-12-31T05:23:04;102005.00;;;1.22;87.26
33153;BME280;19509;43.862;26.176;2022-12-31T05:25:30;102007.41;;;1.13;87.76
33153;BME280;19509;43.862;26.176;2022-12-31T05:27:55;102013.28;;;1.06;88.26
33153;BME280;19509;43.862;26.176;2022-12-31T05:30:21;102017.00;;;1.03;88.43
33153;BME280;19509;43.862;26.176;2022-12-31T05:32:47;102017.47;;;1.08;87.99
33153;BME280;19509;43.862;26.176;2022-12-31T05:35:12;102024.94;;;1.03;88.00
33153;BME280;19509;43.862;26.176;2022-12-31T05:37:38;102027.69;;;1.02;87.64
33153;BME280;19509;43.862;26.176;2022-12-31T05:40:04;102030.69;;;0.97;88.09
33153;BME280;19509;43.862;26.176;2022-12-31T05:42:30;102034.41;;;0.94;88.10
33153;BME280;19509;43.862;26.176;2022-12-31T05:44:56;102042.34;;;0.94;88.39
33153;BME280;19509;43.862;26.176;2022-12-31T05:47:21;102052.13;;;0.94;88.67
33153;BME280;19509;43.862;26.176;2022-12-31T05:49:47;102053.19;;;0.91;88.75
33153;BME280;19509;43.862;26.176;2022-12-31T05:52:12;102056.19;;;0.87;88.43
33153;BME280;19509;43.862;26.176;2022-12-31T05:54:38;102061.19;;;0.79;88.82
33153;BME280;19509;43.862;26.176;2022-12-31T05:57:04;102063.72;;;0.80;89.01
33153;BME280;19509;43.862;26.176;2022-12-31T05:59:30;102059.38;;;0.79;88.32
33153;BME280;19509;43.862;26.176;2022-12-31T06:01:56;102062.75;;;0.81;88.11
33153;BME280;19509;43.862;26.176;2022-12-31T06:04:22;102067.22;;;0.81;88.38
33153;BME280;19509;43.862;26.176;2022-12-31T06:06:48;102062.03;;;0.79;88.46
33153;BME280;19509;43.862;26.176;2022-12-31T06:09:17;102065.66;;;0.78;88.43
33153;BME280;19509;43.862;26.176;2022-12-31T06:11:43;102071.25;;;0.86;88.50
33153;BME280;19509;43.862;26.176;2022-12-31T06:14:09;102072.69;;;0.90;88.41
33153;BME280;19509;43.862;26.176;2022-12-31T06:16:35;102078.31;;;0.99;88.59
33153;BME280;19509;43.862;26.176;2022-12-31T06:19:00;102082.31;;;1.04;88.27
33153;BME280;19509;43.862;26.176;2022-12-31T06:21:28;102087.28;;;1.09;88.01
33153;BME280;19509;43.862;26.176;2022-12-31T06:23:54;102089.47;;;1.15;87.95
33153;BME280;19509;43.862;26.176;2022-12-31T06:26:19;102095.28;;;1.20;87.81
33153;BME280;19509;43.862;26.176;2022-12-31T06:28:45;102087.84;;;1.25;87.02
33153;BME280;19509;43.862;26.176;2022-12-31T06:31:12;102090.44;;;1.38;86.69
33153;BME280;19509;43.862;26.176;2022-12-31T06:33:37;102093.38;;;1.46;86.74
33153;BME280;19509;43.862;26.176;2022-12-31T06:36:05;102098.09;;;1.54;86.25
33153;BME280;19509;43.862;26.176;2022-12-31T06:38:33;102107.88;;;1.53;85.59
33153;BME280;19509;43.862;26.176;2022-12-31T06:41:03;102103.50;;;1.52;86.02
33153;BME280;19509;43.862;26.176;2022-12-31T06:43:29;102114.19;;;1.63;85.11
33153;BME280;19509;43.862;26.176;2022-12-31T06:45:54;102112.72;;;1.59;84.91
33153;BME280;19509;43.862;26.176;2022-12-31T06:48:20;102117.94;;;1.72;85.40
33153;BME280;19509;43.862;26.176;2022-12-31T06:50:45;102119.19;;;1.79;84.72
33153;BME280;19509;43.862;26.176;2022-12-31T06:53:11;102122.13;;;1.87;84.69
33153;BME280;19509;43.862;26.176;2022-12-31T06:55:37;102132.16;;;2.06;84.36
33153;BME280;19509;43.862;26.176;2022-12-31T06:58:03;102138.84;;;2.23;83.68
33153;BME280;19509;43.862;26.176;2022-12-31T07:00:29;102142.13;;;2.27;84.54
33153;BME280;19509;43.862;26.176;2022-12-31T07:03:05;102137.69;;;2.39;84.01
33153;BME280;19509;43.862;26.176;2022-12-31T07:05:51;102135.16;;;2.59;83.59
33153;BME280;19509;43.862;26.176;2022-12-31T07:13:49;102143.13;;;2.93;82.49
33153;BME280;19509;43.862;26.176;2022-12-31T07:18:54;102143.56;;;3.21;81.56
33153;BME280;19509;43.862;26.176;2022-12-31T07:21:32;102153.72;;;3.27;81.70
33153;BME280;19509;43.862;26.176;2022-12-31T07:23:59;102151.84;;;3.39;81.68
33153;BME280;19509;43.862;26.176;2022-12-31T07:26:38;102155.56;;;3.59;81.40
33153;BME280;19509;43.862;26.176;2022-12-31T07:29:18;102152.59;;;3.73;81.71
33153;BME280;19509;43.862;26.176;2022-12-31T07:34:59;102163.81;;;4.09;81.32
33153;BME280;19509;43.862;26.176;2022-12-31T07:40:52;102162.56;;;4.34;80.40
33153;BME280;19509;43.862;26.176;2022-12-31T07:43:35;102170.22;;;4.48;80.28
33153;BME280;19509;43.862;26.176;2022-12-31T07:48:55;102162.13;;;4.80;79.58
33153;BME280;19509;43.862;26.176;2022-12-31T07:51:21;102167.66;;;4.98;78.83
33153;BME280;19509;43.862;26.176;2022-12-31T07:53:46;102168.25;;;5.11;79.11
33153;BME280;19509;43.862;26.176;2022-12-31T07:56:12;102171.53;;;5.25;78.59
33153;BME280;19509;43.862;26.176;2022-12-31T08:01:53;102171.88;;;5.51;78.55
33153;BME280;19509;43.862;26.176;2022-12-31T08:04:32;102171.31;;;5.66;78.62
33153;BME280;19509;43.862;26.176;2022-12-31T08:10:36;102169.53;;;6.06;77.92
33153;BME280;19509;43.862;26.176;2022-12-31T08:13:08;102170.47;;;6.24;77.65
33153;BME280;19509;43.862;26.176;2022-12-31T08:15:36;102172.97;;;6.45;77.48
33153;BME280;19509;43.862;26.176;2022-12-31T08:18:01;102170.81;;;6.58;76.73
33153;BME280;19509;43.862;26.176;2022-12-31T08:20:28;102172.19;;;6.72;76.49
33153;BME280;19509;43.862;26.176;2022-12-31T08:28:42;102177.22;;;7.13;75.18
33153;BME280;19509;43.862;26.176;2022-12-31T08:31:16;102175.47;;;7.31;75.35
33153;BME280;19509;43.862;26.176;2022-12-31T08:34:23;102174.19;;;7.53;73.67
33153;BME280;19509;43.862;26.176;2022-12-31T08:37:00;102174.28;;;7.61;73.90
33153;BME280;19509;43.862;26.176;2022-12-31T08:50:01;102156.94;;;8.09;73.05
33153;BME280;19509;43.862;26.176;2022-12-31T08:52:26;102154.00;;;8.20;72.97
33153;BME280;19509;43.862;26.176;2022-12-31T08:54:52;102157.44;;;8.30;72.82
33153;BME280;19509;43.862;26.176;2022-12-31T08:57:30;102156.06;;;8.44;72.21
33153;BME280;19509;43.862;26.176;2022-12-31T09:05:51;102141.78;;;8.70;71.91
33153;BME280;19509;43.862;26.176;2022-12-31T09:11:13;102137.38;;;9.03;71.23
33153;BME280;19509;43.862;26.176;2022-12-31T09:14:12;102131.75;;;9.22;70.63
33153;BME280;19509;43.862;26.176;2022-12-31T09:16:47;102133.78;;;9.37;69.66
33153;BME280;19509;43.862;26.176;2022-12-31T09:19:15;102133.13;;;9.43;69.65
33153;BME280;19509;43.862;26.176;2022-12-31T09:21:41;102130.47;;;9.51;69.77
33153;BME280;19509;43.862;26.176;2022-12-31T09:24:11;102120.25;;;9.63;69.18
33153;BME280;19509;43.862;26.176;2022-12-31T09:26:40;102122.44;;;9.84;68.79
33153;BME280;19509;43.862;26.176;2022-12-31T09:34:58;102119.06;;;10.23;65.92
33153;BME280;19509;43.862;26.176;2022-12-31T09:37:47;102113.19;;;10.27;66.50
33153;BME280;19509;43.862;26.176;2022-12-31T09:48:54;102104.31;;;10.66;65.33
33153;BME280;19509;43.862;26.176;2022-12-31T09:59:28;102101.56;;;10.82;64.67
33153;BME280;19509;43.862;26.176;2022-12-31T10:02:22;102097.50;;;10.86;64.58
33153;BME280;19509;43.862;26.176;2022-12-31T10:05:18;102087.59;;;10.87;63.88
33153;BME280;19509;43.862;26.176;2022-12-31T10:10:29;102091.25;;;10.94;64.38
33153;BME280;19509;43.862;26.176;2022-12-31T10:15:52;102083.19;;;11.17;64.09
33153;BME280;19509;43.862;26.176;2022-12-31T10:27:35;102071.56;;;11.25;64.94
33153;BME280;19509;43.862;26.176;2022-12-31T10:30:19;102065.03;;;11.42;65.01
33153;BME280;19509;43.862;26.176;2022-12-31T10:46:33;102055.66;;;11.76;62.02
33153;BME280;19509;43.862;26.176;2022-12-31T10:54:57;102050.22;;;11.99;61.79
33153;BME280;19509;43.862;26.176;2022-12-31T10:57:38;82121.97;;;12.03;100.00
33153;BME280;19509;43.862;26.176;2022-12-31T11:13:56;63304.72;;;-144.22;100.00
33153;BME280;19509;43.862;26.176;2022-12-31T11:17:05;63304.72;;;-144.22;100.00
33153;BME280;19509;43.862;26.176;2022-12-31T11:26:00;63304.72;;;-144.22;100.00
33153;BME280;19509;43.862;26.176;2022-12-31T11:42:40;63304.72;;;-144.22;100.00
33153;BME280;19509;43.862;26.176;2022-12-31T11:45:17;63304.72;;;-144.22;100.00
33153;BME280;19509;43.862;26.176;2022-12-31T11:50:50;63304.72;;;-144.22;100.00
33153;BME280;19509;43.862;26.176;2022-12-31T11:53:45;63304.72;;;-144.22;100.00
33153;BME280;19509;43.862;26.176;2022-12-31T11:56:19;63304.72;;;-144.22;100.00
33153;BME280;19509;43.862;26.176;2022-12-31T11:58:50;63304.72;;;-144.22;100.00
33153;BME280;19509;43.862;26.176;2022-12-31T12:01:17;63304.72;;;-144.22;100.00
33153;BME280;19509;43.862;26.176;2022-12-31T12:03:44;63304.72;;;-144.22;100.00
33153;BME280;19509;43.862;26.176;2022-12-31T12:06:12;63304.72;;;-144.22;100.00
33153;BME280;19509;43.862;26.176;2022-12-31T12:08:38;63304.72;;;-144.22;100.00
33153;BME280;19509;43.862;26.176;2022-12-31T12:11:07;63304.72;;;-144.22;100.00
33153;BME280;19509;43.862;26.176;2022-12-31T12:13:37;63304.72;;;-144.22;100.00
33153;BME280;19509;43.862;26.176;2022-12-31T12:16:06;63304.72;;;-144.22;100.00
33153;BME280;19509;43.862;26.176;2022-12-31T12:21:12;63304.72;;;-144.22;100.00
33153;BME280;19509;43.862;26.176;2022-12-31T12:23:39;63304.72;;;-144.22;100.00
33153;BME280;19509;43.862;26.176;2022-12-31T12:26:05;63304.72;;;-144.22;100.00
33153;BME280;19509;43.862;26.176;2022-12-31T12:28:42;63304.72;;;-144.22;100.00
33153;BME280;19509;43.862;26.176;2022-12-31T12:31:22;63304.72;;;-144.22;100.00
33153;BME280;19509;43.862;26.176;2022-12-31T12:33:49;63304.72;;;-144.22;100.00
33153;BME280;19509;43.862;26.176;2022-12-31T12:36:17;63304.72;;;-144.22;100.00
33153;BME280;19509;43.862;26.176;2022-12-31T12:38:43;63304.72;;;-144.22;100.00
33153;BME280;19509;43.862;26.176;2022-12-31T12:41:22;63304.72;;;-144.22;100.00
33153;BME280;19509;43.862;26.176;2022-12-31T12:44:01;63304.72;;;-144.22;100.00
33153;BME280;19509;43.862;26.176;2022-12-31T12:48:57;63304.72;;;-144.22;100.00
33153;BME280;19509;43.862;26.176;2022-12-31T12:51:42;63304.72;;;-144.22;100.00
33153;BME280;19509;43.862;26.176;2022-12-31T13:15:40;63304.72;;;-144.22;100.00
33153;BME280;19509;43.862;26.176;2022-12-31T13:20:51;63304.72;;;-144.22;100.00
33153;BME280;19509;43.862;26.176;2022-12-31T13:28:23;63304.72;;;-144.22;100.00
33153;BME280;19509;43.862;26.176;2022-12-31T13:30:55;63304.72;;;-144.22;100.00
33153;BME280;19509;43.862;26.176;2022-12-31T13:33:30;63304.72;;;-144.22;100.00
33153;BME280;19509;43.862;26.176;2022-12-31T13:36:02;63304.72;;;-144.22;100.00
33153;BME280;19509;43.862;26.176;2022-12-31T13:38:41;63304.72;;;-144.22;100.00
33153;BME280;19509;43.862;26.176;2022-12-31T13:46:34;63304.72;;;-144.22;100.00
33153;BME280;19509;43.862;26.176;2022-12-31T13:49:14;63304.72;;;-144.22;100.00
33153;BME280;19509;43.862;26.176;2022-12-31T13:51:49;63304.72;;;-144.22;100.00
33153;BME280;19509;43.862;26.176;2022-12-31T13:56:53;63304.72;;;-144.22;100.00
33153;BME280;19509;43.862;26.176;2022-12-31T14:01:58;63304.72;;;-144.22;100.00
33153;BME280;19509;43.862;26.176;2022-12-31T14:06:58;63304.72;;;-144.22;100.00
33153;BME280;19509;43.862;26.176;2022-12-31T14:09:28;63304.72;;;-144.22;100.00
33153;BME280;19509;43.862;26.176;2022-12-31T14:15:02;63304.72;;;-144.22;100.00
33153;BME280;19509;43.862;26.176;2022-12-31T14:25:19;63304.72;;;-144.22;100.00
33153;BME280;19509;43.862;26.176;2022-12-31T14:27:47;63304.72;;;-144.22;100.00
33153;BME280;19509;43.862;26.176;2022-12-31T14:30:20;63304.72;;;-144.22;100.00
33153;BME280;19509;43.862;26.176;2022-12-31T14:35:38;63304.72;;;-144.22;100.00
33153;BME280;19509;43.862;26.176;2022-12-31T14:41:33;63304.72;;;-144.22;100.00
33153;BME280;19509;43.862;26.176;2022-12-31T14:44:17;63304.72;;;-144.22;100.00
33153;BME280;19509;43.862;26.176;2022-12-31T14:46:58;63304.72;;;-144.22;100.00
33153;BME280;19509;43.862;26.176;2022-12-31T14:52:18;63304.72;;;-144.22;100.00
33153;BME280;19509;43.862;26.176;2022-12-31T14:54:44;63304.72;;;-144.22;100.00
33153;BME280;19509;43.862;26.176;2022-12-31T14:57:22;63304.72;;;-144.22;100.00
33153;BME280;19509;43.862;26.176;2022-12-31T15:00:16;63304.72;;;-144.22;100.00
33153;BME280;19509;43.862;26.176;2022-12-31T15:02:48;63304.72;;;-144.22;100.00
33153;BME280;19509;43.862;26.176;2022-12-31T15:10:19;63304.72;;;-144.22;100.00
33153;BME280;19509;43.862;26.176;2022-12-31T15:21:55;63304.72;;;-144.22;100.00
33153;BME280;19509;43.862;26.176;2022-12-31T15:24:25;63304.72;;;-144.22;100.00
33153;BME280;19509;43.862;26.176;2022-12-31T15:26:57;63304.72;;;-144.22;100.00
33153;BME280;19509;43.862;26.176;2022-12-31T15:31:48;63304.72;;;-144.22;100.00
33153;BME280;19509;43.862;26.176;2022-12-31T15:36:59;63304.72;;;-144.22;100.00
33153;BME280;19509;43.862;26.176;2022-12-31T15:41:58;63304.72;;;-144.22;100.00
33153;BME280;19509;43.862;26.176;2022-12-31T15:44:40;63304.72;;;-144.22;100.00
33153;BME280;19509;43.862;26.176;2022-12-31T15:47:29;63304.72;;;-144.22;100.00
33153;BME280;19509;43.862;26.176;2022-12-31T15:49:59;63304.72;;;-144.22;100.00
33153;BME280;19509;43.862;26.176;2022-12-31T15:52:35;63304.72;;;-144.22;100.00
33153;BME280;19509;43.862;26.176;2022-12-31T15:55:03;63304.72;;;-144.22;100.00
33153;BME280;19509;43.862;26.176;2022-12-31T15:57:32;63304.72;;;-144.22;100.00
33153;BME280;19509;43.862;26.176;2022-12-31T16:00:05;63304.72;;;-144.22;100.00
33153;BME280;19509;43.862;26.176;2022-12-31T16:02:33;63304.72;;;-144.22;100.00
33153;BME280;19509;43.862;26.176;2022-12-31T16:04:59;63304.72;;;-144.22;100.00
33153;BME280;19509;43.862;26.176;2022-12-31T16:07:26;63304.72;;;-144.22;100.00
33153;BME280;19509;43.862;26.176;2022-12-31T16:09:54;63304.72;;;-144.22;100.00
33153;BME280;19509;43.862;26.176;2022-12-31T16:12:25;63304.72;;;-144.22;100.00
33153;BME280;19509;43.862;26.176;2022-12-31T16:14:53;63304.72;;;-144.22;100.00
33153;BME280;19509;43.862;26.176;2022-12-31T16:17:34;63304.72;;;-144.22;100.00
33153;BME280;19509;43.862;26.176;2022-12-31T16:20:18;63304.72;;;-144.22;100.00
33153;BME280;19509;43.862;26.176;2022-12-31T16:22:52;63304.72;;;-144.22;100.00
33153;BME280;19509;43.862;26.176;2022-12-31T16:25:20;63304.72;;;-144.22;100.00
33153;BME280;19509;43.862;26.176;2022-12-31T16:27:48;63304.72;;;-144.22;100.00
33153;BME280;19509;43.862;26.176;2022-12-31T16:30:28;63304.72;;;-144.22;100.00
33153;BME280;19509;43.862;26.176;2022-12-31T16:33:00;63304.72;;;-144.22;100.00
33153;BME280;19509;43.862;26.176;2022-12-31T16:40:33;63304.72;;;-144.22;100.00
33153;BME280;19509;43.862;26.176;2022-12-31T16:42:59;63304.72;;;-144.22;100.00
33153;BME280;19509;43.862;26.176;2022-12-31T16:48:08;63304.72;;;-144.22;100.00
33153;BME280;19509;43.862;26.176;2022-12-31T16:50:34;63304.72;;;-144.22;100.00
33153;BME280;19509;43.862;26.176;2022-12-31T16:53:05;63304.72;;;-144.22;100.00
33153;BME280;19509;43.862;26.176;2022-12-31T16:55:32;63304.72;;;-144.22;100.00
33153;BME280;19509;43.862;26.176;2022-12-31T16:58:14;63304.72;;;-144.22;100.00
33153;BME280;19509;43.862;26.176;2022-12-31T17:00:42;63304.72;;;-144.22;100.00
33153;BME280;19509;43.862;26.176;2022-12-31T17:03:17;63304.72;;;-144.22;100.00
33153;BME280;19509;43.862;26.176;2022-12-31T17:08:41;63304.72;;;-144.22;100.00
33153;BME280;19509;43.862;26.176;2022-12-31T17:11:50;63304.72;;;-144.22;100.00
33153;BME280;19509;43.862;26.176;2022-12-31T17:16:34;63304.72;;;-144.22;100.00
33153;BME280;19509;43.862;26.176;2022-12-31T17:19:01;63304.72;;;-144.22;100.00
33153;BME280;19509;43.862;26.176;2022-12-31T17:21:29;63304.72;;;-144.22;100.00
33153;BME280;19509;43.862;26.176;2022-12-31T17:24:00;63304.72;;;-144.22;100.00
33153;BME280;19509;43.862;26.176;2022-12-31T17:26:29;63304.72;;;-144.22;100.00
33153;BME280;19509;43.862;26.176;2022-12-31T17:28:56;63304.72;;;-144.22;100.00